sensor_id;sensor_type;location;lat;lon;timestamp;temperature;humidity
23873;DHT22;42884;50.718;4.630;2022-07-29T00:02:23;19.10;99.90
23873;DHT22;42884;50.718;4.630;2022-07-29T00:04:49;19.10;99.90
23873;DHT22;42884;50.718;4.630;2022-07-29T00:07:14;19.10;99.90
23873;DHT22;42884;50.718;4.630;2022-07-29T00:09:40;19.10;99.90
23873;DHT22;42884;50.718;4.630;2022-07-29T00:12:06;19.10;99.90
23873;DHT22;42884;50.718;4.630;2022-07-29T00:14:31;19.10;99.90
23873;DHT22;42884;50.718;4.630;2022-07-29T00:16:57;19.10;99.90
23873;DHT22;42884;50.718;4.630;2022-07-29T00:19:22;19.10;99.90
23873;DHT22;42884;50.718;4.630;2022-07-29T00:21:48;19.00;99.90
23873;DHT22;42884;50.718;4.630;2022-07-29T00:24:13;19.00;99.90
23873;DHT22;42884;50.718;4.630;2022-07-29T00:26:39;18.90;99.90
23873;DHT22;42884;50.718;4.630;2022-07-29T00:29:04;18.90;99.90
23873;DHT22;42884;50.718;4.630;2022-07-29T00:31:30;18.90;99.90
23873;DHT22;42884;50.718;4.630;2022-07-29T00:33:56;18.90;99.90
23873;DHT22;42884;50.718;4.630;2022-07-29T00:36:21;18.90;99.90
23873;DHT22;42884;50.718;4.630;2022-07-29T00:38:48;18.90;99.90
23873;DHT22;42884;50.718;4.630;2022-07-29T00:41:13;18.90;99.90
23873;DHT22;42884;50.718;4.630;2022-07-29T00:43:39;18.90;99.90
23873;DHT22;42884;50.718;4.630;2022-07-29T00:46:04;18.90;99.90
23873;DHT22;42884;50.718;4.630;2022-07-29T00:48:30;18.80;99.90
23873;DHT22;42884;50.718;4.630;2022-07-29T00:50:56;18.80;99.90
23873;DHT22;42884;50.718;4.630;2022-07-29T00:53:22;18.80;99.90
23873;DHT22;42884;50.718;4.630;2022-07-29T00:55:49;18.80;99.90
23873;DHT22;42884;50.718;4.630;2022-07-29T00:58:14;18.80;99.90
23873;DHT22;42884;50.718;4.630;2022-07-29T01:00:40;18.70;99.90
23873;DHT22;42884;50.718;4.630;2022-07-29T01:03:06;18.70;99.90
23873;DHT22;42884;50.718;4.630;2022-07-29T01:05:32;18.80;99.90
23873;DHT22;42884;50.718;4.630;2022-07-29T01:07:58;18.80;99.90
23873;DHT22;42884;50.718;4.630;2022-07-29T01:10:24;18.80;99.90
23873;DHT22;42884;50.718;4.630;2022-07-29T01:12:50;18.80;99.90
23873;DHT22;42884;50.718;4.630;2022-07-29T01:15:16;18.70;99.90
23873;DHT22;42884;50.718;4.630;2022-07-29T01:31:39;18.40;99.90
23873;DHT22;42884;50.718;4.630;2022-07-29T01:34:08;18.40;99.90
23873;DHT22;42884;50.718;4.630;2022-07-29T01:36:36;18.30;99.90
23873;DHT22;42884;50.718;4.630;2022-07-29T01:39:25;18.30;99.90
23873;DHT22;42884;50.718;4.630;2022-07-29T01:42:00;18.20;99.90
23873;DHT22;42884;50.718;4.630;2022-07-29T01:44:30;18.10;99.90
23873;DHT22;42884;50.718;4.630;2022-07-29T01:46:57;18.00;99.90
23873;DHT22;42884;50.718;4.630;2022-07-29T01:49:29;18.10;99.90
23873;DHT22;42884;50.718;4.630;2022-07-29T01:52:02;18.00;99.90
23873;DHT22;42884;50.718;4.630;2022-07-29T01:54:32;17.90;99.90
23873;DHT22;42884;50.718;4.630;2022-07-29T01:56:59;17.80;99.90
23873;DHT22;42884;50.718;4.630;2022-07-29T01:59:25;17.80;99.90
23873;DHT22;42884;50.718;4.630;2022-07-29T02:01:52;17.70;99.90
23873;DHT22;42884;50.718;4.630;2022-07-29T02:04:18;17.60;99.90
23873;DHT22;42884;50.718;4.630;2022-07-29T02:06:45;17.60;99.90
23873;DHT22;42884;50.718;4.630;2022-07-29T02:09:12;17.50;99.90
23873;DHT22;42884;50.718;4.630;2022-07-29T02:11:40;17.50;99.90
23873;DHT22;42884;50.718;4.630;2022-07-29T02:14:07;17.50;99.90
23873;DHT22;42884;50.718;4.630;2022-07-29T02:16:35;17.40;99.90
23873;DHT22;42884;50.718;4.630;2022-07-29T02:19:02;17.30;99.90
23873;DHT22;42884;50.718;4.630;2022-07-29T02:21:28;17.40;99.90
23873;DHT22;42884;50.718;4.630;2022-07-29T02:23:55;17.30;99.90
23873;DHT22;42884;50.718;4.630;2022-07-29T02:26:21;17.30;99.90
23873;DHT22;42884;50.718;4.630;2022-07-29T02:28:48;17.20;99.90
23873;DHT22;42884;50.718;4.630;2022-07-29T02:31:15;17.20;99.90
23873;DHT22;42884;50.718;4.630;2022-07-29T02:33:41;17.10;99.90
23873;DHT22;42884;50.718;4.630;2022-07-29T02:36:08;17.10;99.90
23873;DHT22;42884;50.718;4.630;2022-07-29T02:38:34;17.10;99.90
23873;DHT22;42884;50.718;4.630;2022-07-29T02:41:26;17.00;99.90
23873;DHT22;42884;50.718;4.630;2022-07-29T02:43:56;17.00;99.90
23873;DHT22;42884;50.718;4.630;2022-07-29T02:46:32;16.90;99.90
23873;DHT22;42884;50.718;4.630;2022-07-29T02:49:10;16.90;99.90
23873;DHT22;42884;50.718;4.630;2022-07-29T02:51:58;16.90;99.90
23873;DHT22;42884;50.718;4.630;2022-07-29T02:54:47;16.80;99.90
23873;DHT22;42884;50.718;4.630;2022-07-29T02:57:14;16.70;99.90
23873;DHT22;42884;50.718;4.630;2022-07-29T02:59:43;16.70;99.90
23873;DHT22;42884;50.718;4.630;2022-07-29T03:02:10;16.60;99.90
23873;DHT22;42884;50.718;4.630;2022-07-29T03:04:37;16.50;99.90
23873;DHT22;42884;50.718;4.630;2022-07-29T03:07:05;16.50;99.90
23873;DHT22;42884;50.718;4.630;2022-07-29T03:09:30;16.40;99.90
23873;DHT22;42884;50.718;4.630;2022-07-29T03:11:56;16.30;99.90
23873;DHT22;42884;50.718;4.630;2022-07-29T03:14:22;16.30;99.90
23873;DHT22;42884;50.718;4.630;2022-07-29T03:16:48;16.20;99.90
23873;DHT22;42884;50.718;4.630;2022-07-29T03:19:14;16.20;99.90
23873;DHT22;42884;50.718;4.630;2022-07-29T03:21:40;16.20;99.90
23873;DHT22;42884;50.718;4.630;2022-07-29T03:24:05;16.10;99.90
23873;DHT22;42884;50.718;4.630;2022-07-29T03:26:31;16.10;99.90
23873;DHT22;42884;50.718;4.630;2022-07-29T03:28:57;16.10;99.90
23873;DHT22;42884;50.718;4.630;2022-07-29T03:31:22;16.00;99.90
23873;DHT22;42884;50.718;4.630;2022-07-29T03:33:48;16.10;99.90
23873;DHT22;42884;50.718;4.630;2022-07-29T03:36:13;16.00;99.90
23873;DHT22;42884;50.718;4.630;2022-07-29T03:38:39;16.00;99.90
23873;DHT22;42884;50.718;4.630;2022-07-29T03:41:07;16.00;99.90
23873;DHT22;42884;50.718;4.630;2022-07-29T03:43:35;16.00;99.90
23873;DHT22;42884;50.718;4.630;2022-07-29T03:46:01;15.90;99.90
23873;DHT22;42884;50.718;4.630;2022-07-29T03:48:29;15.90;99.90
23873;DHT22;42884;50.718;4.630;2022-07-29T03:50:55;15.90;99.90
23873;DHT22;42884;50.718;4.630;2022-07-29T03:53:21;15.80;99.90
23873;DHT22;42884;50.718;4.630;2022-07-29T03:55:48;15.80;99.90
23873;DHT22;42884;50.718;4.630;2022-07-29T03:58:15;15.80;99.90
23873;DHT22;42884;50.718;4.630;2022-07-29T04:00:41;15.70;99.90
23873;DHT22;42884;50.718;4.630;2022-07-29T04:03:07;15.70;99.90
23873;DHT22;42884;50.718;4.630;2022-07-29T04:05:33;15.60;99.90
23873;DHT22;42884;50.718;4.630;2022-07-29T04:07:59;15.60;99.90
23873;DHT22;42884;50.718;4.630;2022-07-29T04:10:24;15.50;99.90
23873;DHT22;42884;50.718;4.630;2022-07-29T04:12:50;15.50;99.90
23873;DHT22;42884;50.718;4.630;2022-07-29T04:15:16;15.50;99.90
23873;DHT22;42884;50.718;4.630;2022-07-29T04:17:41;15.40;99.90
23873;DHT22;42884;50.718;4.630;2022-07-29T04:20:07;15.40;99.90
23873;DHT22;42884;50.718;4.630;2022-07-29T04:22:33;15.40;99.90
23873;DHT22;42884;50.718;4.630;2022-07-29T04:24:58;15.40;99.90
23873;DHT22;42884;50.718;4.630;2022-07-29T04:27:24;15.30;99.90
23873;DHT22;42884;50.718;4.630;2022-07-29T04:29:50;15.30;99.90
23873;DHT22;42884;50.718;4.630;2022-07-29T04:32:15;15.20;99.90
23873;DHT22;42884;50.718;4.630;2022-07-29T04:34:41;15.20;99.90
23873;DHT22;42884;50.718;4.630;2022-07-29T04:37:06;15.20;99.90
23873;DHT22;42884;50.718;4.630;2022-07-29T04:39:32;15.20;99.90
23873;DHT22;42884;50.718;4.630;2022-07-29T04:41:57;15.20;99.90
23873;DHT22;42884;50.718;4.630;2022-07-29T04:44:23;15.10;99.90
23873;DHT22;42884;50.718;4.630;2022-07-29T04:46:49;15.20;99.90
23873;DHT22;42884;50.718;4.630;2022-07-29T04:49:14;15.10;99.90
23873;DHT22;42884;50.718;4.630;2022-07-29T04:51:40;15.20;99.90
23873;DHT22;42884;50.718;4.630;2022-07-29T04:54:05;15.10;99.90
23873;DHT22;42884;50.718;4.630;2022-07-29T04:56:31;15.10;99.90
23873;DHT22;42884;50.718;4.630;2022-07-29T04:58:57;15.10;99.90
23873;DHT22;42884;50.718;4.630;2022-07-29T05:01:22;15.20;99.90
23873;DHT22;42884;50.718;4.630;2022-07-29T05:03:48;15.20;99.90
23873;DHT22;42884;50.718;4.630;2022-07-29T05:06:13;15.20;99.90
23873;DHT22;42884;50.718;4.630;2022-07-29T05:08:39;15.30;99.90
23873;DHT22;42884;50.718;4.630;2022-07-29T05:11:04;15.20;99.90
23873;DHT22;42884;50.718;4.630;2022-07-29T05:13:30;15.30;99.90
23873;DHT22;42884;50.718;4.630;2022-07-29T05:15:55;15.30;99.90
23873;DHT22;42884;50.718;4.630;2022-07-29T05:18:24;15.40;99.90
23873;DHT22;42884;50.718;4.630;2022-07-29T05:20:49;15.50;99.90
23873;DHT22;42884;50.718;4.630;2022-07-29T05:23:15;15.60;99.90
23873;DHT22;42884;50.718;4.630;2022-07-29T05:25:40;15.70;99.90
23873;DHT22;42884;50.718;4.630;2022-07-29T05:28:06;15.80;99.90
23873;DHT22;42884;50.718;4.630;2022-07-29T05:30:32;15.90;99.90
23873;DHT22;42884;50.718;4.630;2022-07-29T05:32:57;16.00;99.90
23873;DHT22;42884;50.718;4.630;2022-07-29T05:35:23;16.20;99.90
23873;DHT22;42884;50.718;4.630;2022-07-29T05:37:48;16.30;99.90
23873;DHT22;42884;50.718;4.630;2022-07-29T05:40:14;16.40;99.90
23873;DHT22;42884;50.718;4.630;2022-07-29T05:42:39;16.60;99.90
23873;DHT22;42884;50.718;4.630;2022-07-29T05:45:05;16.70;99.90
23873;DHT22;42884;50.718;4.630;2022-07-29T05:47:31;16.90;99.90
23873;DHT22;42884;50.718;4.630;2022-07-29T05:49:56;17.00;99.90
23873;DHT22;42884;50.718;4.630;2022-07-29T05:52:22;17.10;99.90
23873;DHT22;42884;50.718;4.630;2022-07-29T05:54:48;17.20;99.90
23873;DHT22;42884;50.718;4.630;2022-07-29T05:57:20;17.30;99.90
23873;DHT22;42884;50.718;4.630;2022-07-29T05:59:46;17.40;99.90
23873;DHT22;42884;50.718;4.630;2022-07-29T06:02:12;17.50;99.90
23873;DHT22;42884;50.718;4.630;2022-07-29T06:04:38;17.60;99.90
23873;DHT22;42884;50.718;4.630;2022-07-29T06:07:03;17.70;99.90
23873;DHT22;42884;50.718;4.630;2022-07-29T06:09:29;17.70;99.90
23873;DHT22;42884;50.718;4.630;2022-07-29T06:11:55;17.80;99.90
23873;DHT22;42884;50.718;4.630;2022-07-29T06:14:20;17.90;99.90
23873;DHT22;42884;50.718;4.630;2022-07-29T06:16:46;18.00;99.90
23873;DHT22;42884;50.718;4.630;2022-07-29T06:19:11;18.20;99.90
23873;DHT22;42884;50.718;4.630;2022-07-29T06:21:41;18.30;99.90
23873;DHT22;42884;50.718;4.630;2022-07-29T06:24:06;18.40;99.90
23873;DHT22;42884;50.718;4.630;2022-07-29T06:26:32;18.50;99.90
23873;DHT22;42884;50.718;4.630;2022-07-29T06:28:58;18.60;99.90
23873;DHT22;42884;50.718;4.630;2022-07-29T06:31:24;18.70;99.90
23873;DHT22;42884;50.718;4.630;2022-07-29T06:33:49;18.80;99.90
23873;DHT22;42884;50.718;4.630;2022-07-29T06:36:15;18.90;99.90
23873;DHT22;42884;50.718;4.630;2022-07-29T06:38:40;19.00;99.90
23873;DHT22;42884;50.718;4.630;2022-07-29T06:41:06;19.10;99.90
23873;DHT22;42884;50.718;4.630;2022-07-29T06:43:36;19.20;99.90
23873;DHT22;42884;50.718;4.630;2022-07-29T06:46:08;19.30;99.90
23873;DHT22;42884;50.718;4.630;2022-07-29T06:48:34;19.30;99.90
23873;DHT22;42884;50.718;4.630;2022-07-29T06:51:01;19.40;99.90
23873;DHT22;42884;50.718;4.630;2022-07-29T06:53:28;19.40;99.90
23873;DHT22;42884;50.718;4.630;2022-07-29T06:55:54;19.60;99.90
23873;DHT22;42884;50.718;4.630;2022-07-29T06:58:19;19.60;99.90
23873;DHT22;42884;50.718;4.630;2022-07-29T07:00:46;19.70;99.90
23873;DHT22;42884;50.718;4.630;2022-07-29T07:03:11;19.80;99.90
23873;DHT22;42884;50.718;4.630;2022-07-29T07:05:37;19.90;99.90
23873;DHT22;42884;50.718;4.630;2022-07-29T07:08:04;19.90;99.90
23873;DHT22;42884;50.718;4.630;2022-07-29T07:10:30;19.90;99.90
23873;DHT22;42884;50.718;4.630;2022-07-29T07:12:55;20.10;99.90
23873;DHT22;42884;50.718;4.630;2022-07-29T07:15:21;20.30;99.90
23873;DHT22;42884;50.718;4.630;2022-07-29T07:17:47;20.30;99.90
23873;DHT22;42884;50.718;4.630;2022-07-29T07:20:14;20.30;99.90
23873;DHT22;42884;50.718;4.630;2022-07-29T07:22:39;20.40;99.90
23873;DHT22;42884;50.718;4.630;2022-07-29T07:25:05;20.50;99.90
23873;DHT22;42884;50.718;4.630;2022-07-29T07:27:30;20.60;99.90
23873;DHT22;42884;50.718;4.630;2022-07-29T07:29:56;20.50;99.90
23873;DHT22;42884;50.718;4.630;2022-07-29T07:32:22;20.60;99.90
23873;DHT22;42884;50.718;4.630;2022-07-29T07:34:47;20.70;99.90
23873;DHT22;42884;50.718;4.630;2022-07-29T07:37:13;20.90;99.90
23873;DHT22;42884;50.718;4.630;2022-07-29T07:39:40;21.10;99.90
23873;DHT22;42884;50.718;4.630;2022-07-29T07:42:05;21.30;99.90
23873;DHT22;42884;50.718;4.630;2022-07-29T07:44:31;21.40;99.90
23873;DHT22;42884;50.718;4.630;2022-07-29T07:46:57;21.40;99.90
23873;DHT22;42884;50.718;4.630;2022-07-29T07:49:22;21.50;99.90
23873;DHT22;42884;50.718;4.630;2022-07-29T07:51:48;21.80;99.90
23873;DHT22;42884;50.718;4.630;2022-07-29T07:54:14;22.10;99.90
23873;DHT22;42884;50.718;4.630;2022-07-29T07:56:39;22.40;99.90
23873;DHT22;42884;50.718;4.630;2022-07-29T07:59:05;22.30;99.90
23873;DHT22;42884;50.718;4.630;2022-07-29T08:01:30;22.60;99.90
23873;DHT22;42884;50.718;4.630;2022-07-29T08:03:56;22.80;99.90
23873;DHT22;42884;50.718;4.630;2022-07-29T08:06:21;23.00;99.90
23873;DHT22;42884;50.718;4.630;2022-07-29T08:08:48;23.20;99.90
23873;DHT22;42884;50.718;4.630;2022-07-29T08:11:14;23.20;99.90
23873;DHT22;42884;50.718;4.630;2022-07-29T08:13:40;23.20;99.90
23873;DHT22;42884;50.718;4.630;2022-07-29T08:16:06;23.60;99.90
23873;DHT22;42884;50.718;4.630;2022-07-29T08:18:41;23.90;99.90
23873;DHT22;42884;50.718;4.630;2022-07-29T08:21:06;24.10;99.90
23873;DHT22;42884;50.718;4.630;2022-07-29T08:23:32;24.40;99.90
23873;DHT22;42884;50.718;4.630;2022-07-29T08:26:08;25.00;99.90
23873;DHT22;42884;50.718;4.630;2022-07-29T08:28:39;25.40;99.90
23873;DHT22;42884;50.718;4.630;2022-07-29T08:31:04;25.70;99.90
23873;DHT22;42884;50.718;4.630;2022-07-29T08:33:30;26.20;99.90
23873;DHT22;42884;50.718;4.630;2022-07-29T08:35:56;26.40;99.90
23873;DHT22;42884;50.718;4.630;2022-07-29T08:38:21;26.60;99.90
23873;DHT22;42884;50.718;4.630;2022-07-29T08:40:47;26.50;99.90
23873;DHT22;42884;50.718;4.630;2022-07-29T08:43:12;26.40;99.90
23873;DHT22;42884;50.718;4.630;2022-07-29T08:48:07;27.00;99.90
23873;DHT22;42884;50.718;4.630;2022-07-29T08:50:34;27.00;99.90
23873;DHT22;42884;50.718;4.630;2022-07-29T08:53:00;27.00;99.90
23873;DHT22;42884;50.718;4.630;2022-07-29T08:55:26;27.10;99.90
23873;DHT22;42884;50.718;4.630;2022-07-29T08:57:52;27.50;99.90
23873;DHT22;42884;50.718;4.630;2022-07-29T09:00:18;27.50;99.90
23873;DHT22;42884;50.718;4.630;2022-07-29T09:02:44;27.80;99.90
23873;DHT22;42884;50.718;4.630;2022-07-29T09:05:12;28.50;99.90
23873;DHT22;42884;50.718;4.630;2022-07-29T09:07:38;29.10;99.60
23873;DHT22;42884;50.718;4.630;2022-07-29T09:10:04;29.20;99.90
23873;DHT22;42884;50.718;4.630;2022-07-29T09:12:30;29.60;97.60
23873;DHT22;42884;50.718;4.630;2022-07-29T09:14:55;29.80;98.00
23873;DHT22;42884;50.718;4.630;2022-07-29T09:17:40;30.10;98.10
23873;DHT22;42884;50.718;4.630;2022-07-29T09:20:19;30.30;97.10
23873;DHT22;42884;50.718;4.630;2022-07-29T09:22:46;30.20;96.50
23873;DHT22;42884;50.718;4.630;2022-07-29T09:25:15;29.80;95.00
23873;DHT22;42884;50.718;4.630;2022-07-29T09:28:04;29.40;95.30
23873;DHT22;42884;50.718;4.630;2022-07-29T09:30:30;29.80;96.60
23873;DHT22;42884;50.718;4.630;2022-07-29T09:33:00;30.00;96.00
23873;DHT22;42884;50.718;4.630;2022-07-29T09:35:26;30.00;95.10
23873;DHT22;42884;50.718;4.630;2022-07-29T09:37:52;30.10;94.50
23873;DHT22;42884;50.718;4.630;2022-07-29T09:40:22;30.30;94.00
23873;DHT22;42884;50.718;4.630;2022-07-29T09:42:48;30.40;93.00
23873;DHT22;42884;50.718;4.630;2022-07-29T09:45:30;30.30;94.20
23873;DHT22;42884;50.718;4.630;2022-07-29T09:47:55;30.90;93.40
23873;DHT22;42884;50.718;4.630;2022-07-29T09:50:35;31.20;92.40
23873;DHT22;42884;50.718;4.630;2022-07-29T09:53:01;31.20;92.80
23873;DHT22;42884;50.718;4.630;2022-07-29T09:55:26;31.40;92.20
23873;DHT22;42884;50.718;4.630;2022-07-29T09:57:52;31.80;90.60
23873;DHT22;42884;50.718;4.630;2022-07-29T10:00:19;31.90;92.20
23873;DHT22;42884;50.718;4.630;2022-07-29T10:02:45;32.00;92.00
23873;DHT22;42884;50.718;4.630;2022-07-29T10:05:25;32.20;91.60
23873;DHT22;42884;50.718;4.630;2022-07-29T10:07:52;32.60;91.40
23873;DHT22;42884;50.718;4.630;2022-07-29T10:10:18;33.00;90.50
23873;DHT22;42884;50.718;4.630;2022-07-29T10:12:53;32.80;89.30
23873;DHT22;42884;50.718;4.630;2022-07-29T10:15:20;32.70;87.00
23873;DHT22;42884;50.718;4.630;2022-07-29T10:17:46;32.50;88.90
23873;DHT22;42884;50.718;4.630;2022-07-29T10:20:13;32.70;89.30
23873;DHT22;42884;50.718;4.630;2022-07-29T10:22:39;32.90;90.10
23873;DHT22;42884;50.718;4.630;2022-07-29T10:25:05;33.30;90.00
23873;DHT22;42884;50.718;4.630;2022-07-29T10:27:30;33.80;87.70
23873;DHT22;42884;50.718;4.630;2022-07-29T10:29:56;34.00;85.10
23873;DHT22;42884;50.718;4.630;2022-07-29T10:37:52;33.90;85.30
23873;DHT22;42884;50.718;4.630;2022-07-29T10:43:33;34.10;83.70
23873;DHT22;42884;50.718;4.630;2022-07-29T10:46:01;34.40;84.60
23873;DHT22;42884;50.718;4.630;2022-07-29T10:48:27;34.40;83.20
23873;DHT22;42884;50.718;4.630;2022-07-29T10:53:19;34.80;81.40
23873;DHT22;42884;50.718;4.630;2022-07-29T10:55:46;34.80;82.40
23873;DHT22;42884;50.718;4.630;2022-07-29T11:00:39;34.30;82.30
23873;DHT22;42884;50.718;4.630;2022-07-29T11:03:04;34.10;81.40
23873;DHT22;42884;50.718;4.630;2022-07-29T11:05:30;34.20;81.80
23873;DHT22;42884;50.718;4.630;2022-07-29T11:08:16;34.50;78.40
23873;DHT22;42884;50.718;4.630;2022-07-29T11:10:44;34.40;79.10
23873;DHT22;42884;50.718;4.630;2022-07-29T11:13:09;34.50;82.80
23873;DHT22;42884;50.718;4.630;2022-07-29T11:15:54;34.50;80.00
23873;DHT22;42884;50.718;4.630;2022-07-29T11:18:20;34.30;77.90
23873;DHT22;42884;50.718;4.630;2022-07-29T11:20:46;34.50;79.40
23873;DHT22;42884;50.718;4.630;2022-07-29T11:25:45;35.20;77.50
23873;DHT22;42884;50.718;4.630;2022-07-29T11:28:13;35.60;79.20
23873;DHT22;42884;50.718;4.630;2022-07-29T11:30:50;35.60;79.30
23873;DHT22;42884;50.718;4.630;2022-07-29T11:33:29;35.40;76.20
23873;DHT22;42884;50.718;4.630;2022-07-29T11:38:32;34.70;78.30
23873;DHT22;42884;50.718;4.630;2022-07-29T11:43:52;34.80;77.10
23873;DHT22;42884;50.718;4.630;2022-07-29T11:46:41;34.00;77.40
23873;DHT22;42884;50.718;4.630;2022-07-29T11:49:03;33.20;79.10
23873;DHT22;42884;50.718;4.630;2022-07-29T11:51:29;32.40;81.60
23873;DHT22;42884;50.718;4.630;2022-07-29T11:53:55;32.90;83.40
23873;DHT22;42884;50.718;4.630;2022-07-29T11:56:20;33.20;77.00
23873;DHT22;42884;50.718;4.630;2022-07-29T11:58:46;32.60;78.80
23873;DHT22;42884;50.718;4.630;2022-07-29T12:01:16;32.40;79.70
23873;DHT22;42884;50.718;4.630;2022-07-29T12:03:42;32.50;81.50
23873;DHT22;42884;50.718;4.630;2022-07-29T12:06:11;32.60;79.90
23873;DHT22;42884;50.718;4.630;2022-07-29T12:08:42;32.00;80.20
23873;DHT22;42884;50.718;4.630;2022-07-29T12:11:14;31.80;80.20
23873;DHT22;42884;50.718;4.630;2022-07-29T12:13:40;31.90;81.50
23873;DHT22;42884;50.718;4.630;2022-07-29T12:16:05;32.10;79.80
23873;DHT22;42884;50.718;4.630;2022-07-29T12:18:31;32.40;78.90
23873;DHT22;42884;50.718;4.630;2022-07-29T12:20:58;32.80;77.70
23873;DHT22;42884;50.718;4.630;2022-07-29T12:23:24;32.90;80.20
23873;DHT22;42884;50.718;4.630;2022-07-29T12:25:49;33.30;77.50
23873;DHT22;42884;50.718;4.630;2022-07-29T12:28:15;33.80;80.70
23873;DHT22;42884;50.718;4.630;2022-07-29T12:30:45;34.20;78.50
23873;DHT22;42884;50.718;4.630;2022-07-29T12:35:53;34.00;76.80
23873;DHT22;42884;50.718;4.630;2022-07-29T12:38:19;33.60;78.30
23873;DHT22;42884;50.718;4.630;2022-07-29T12:40:45;33.30;78.60
23873;DHT22;42884;50.718;4.630;2022-07-29T12:43:13;33.20;78.20
23873;DHT22;42884;50.718;4.630;2022-07-29T12:45:43;32.90;77.20
23873;DHT22;42884;50.718;4.630;2022-07-29T12:48:09;33.00;77.50
23873;DHT22;42884;50.718;4.630;2022-07-29T12:50:35;31.90;77.20
23873;DHT22;42884;50.718;4.630;2022-07-29T12:53:07;32.40;81.30
23873;DHT22;42884;50.718;4.630;2022-07-29T12:58:05;32.50;78.60
23873;DHT22;42884;50.718;4.630;2022-07-29T13:00:31;32.30;79.40
23873;DHT22;42884;50.718;4.630;2022-07-29T13:02:57;32.10;78.90
23873;DHT22;42884;50.718;4.630;2022-07-29T13:05:22;31.80;78.50
23873;DHT22;42884;50.718;4.630;2022-07-29T13:07:49;31.80;79.30
23873;DHT22;42884;50.718;4.630;2022-07-29T13:10:20;31.60;76.40
23873;DHT22;42884;50.718;4.630;2022-07-29T13:13:02;31.30;81.40
23873;DHT22;42884;50.718;4.630;2022-07-29T13:15:30;31.30;80.40
23873;DHT22;42884;50.718;4.630;2022-07-29T13:17:56;31.40;80.20
23873;DHT22;42884;50.718;4.630;2022-07-29T13:20:25;31.70;81.20
23873;DHT22;42884;50.718;4.630;2022-07-29T13:22:52;31.90;79.30
23873;DHT22;42884;50.718;4.630;2022-07-29T13:25:25;31.50;78.10
23873;DHT22;42884;50.718;4.630;2022-07-29T13:27:50;31.50;80.90
23873;DHT22;42884;50.718;4.630;2022-07-29T13:30:16;31.30;77.10
23873;DHT22;42884;50.718;4.630;2022-07-29T13:32:41;31.30;81.20
23873;DHT22;42884;50.718;4.630;2022-07-29T13:35:07;31.30;81.00
23873;DHT22;42884;50.718;4.630;2022-07-29T13:37:33;31.40;81.70
23873;DHT22;42884;50.718;4.630;2022-07-29T13:40:00;31.40;84.10
23873;DHT22;42884;50.718;4.630;2022-07-29T13:42:28;32.00;79.00
23873;DHT22;42884;50.718;4.630;2022-07-29T13:44:53;32.20;79.90
23873;DHT22;42884;50.718;4.630;2022-07-29T13:47:19;32.00;78.50
23873;DHT22;42884;50.718;4.630;2022-07-29T13:49:45;32.10;77.60
23873;DHT22;42884;50.718;4.630;2022-07-29T13:52:10;32.00;79.20
23873;DHT22;42884;50.718;4.630;2022-07-29T13:54:36;32.20;80.50
23873;DHT22;42884;50.718;4.630;2022-07-29T13:57:03;32.60;79.20
23873;DHT22;42884;50.718;4.630;2022-07-29T13:59:28;32.60;78.40
23873;DHT22;42884;50.718;4.630;2022-07-29T14:01:54;32.40;77.20
23873;DHT22;42884;50.718;4.630;2022-07-29T14:04:20;31.70;76.00
23873;DHT22;42884;50.718;4.630;2022-07-29T14:06:46;31.60;78.40
23873;DHT22;42884;50.718;4.630;2022-07-29T14:09:12;31.60;79.30
23873;DHT22;42884;50.718;4.630;2022-07-29T14:11:37;31.20;78.20
23873;DHT22;42884;50.718;4.630;2022-07-29T14:14:06;31.10;77.40
23873;DHT22;42884;50.718;4.630;2022-07-29T14:16:32;30.90;78.80
23873;DHT22;42884;50.718;4.630;2022-07-29T14:18:57;30.70;80.00
23873;DHT22;42884;50.718;4.630;2022-07-29T14:21:23;30.60;81.50
23873;DHT22;42884;50.718;4.630;2022-07-29T14:23:49;30.20;77.90
23873;DHT22;42884;50.718;4.630;2022-07-29T14:26:14;30.00;80.00
23873;DHT22;42884;50.718;4.630;2022-07-29T14:28:40;29.90;79.80
23873;DHT22;42884;50.718;4.630;2022-07-29T14:31:05;29.90;81.80
23873;DHT22;42884;50.718;4.630;2022-07-29T14:33:31;29.90;83.50
23873;DHT22;42884;50.718;4.630;2022-07-29T14:35:56;29.50;79.20
23873;DHT22;42884;50.718;4.630;2022-07-29T14:38:22;29.50;82.90
23873;DHT22;42884;50.718;4.630;2022-07-29T14:40:47;29.40;80.50
23873;DHT22;42884;50.718;4.630;2022-07-29T14:43:13;29.40;80.00
23873;DHT22;42884;50.718;4.630;2022-07-29T14:45:39;29.40;80.70
23873;DHT22;42884;50.718;4.630;2022-07-29T14:48:05;29.30;79.10
23873;DHT22;42884;50.718;4.630;2022-07-29T14:50:31;29.10;80.50
23873;DHT22;42884;50.718;4.630;2022-07-29T14:52:56;28.80;80.50
23873;DHT22;42884;50.718;4.630;2022-07-29T14:55:22;28.80;79.10
23873;DHT22;42884;50.718;4.630;2022-07-29T14:57:47;28.70;82.60
23873;DHT22;42884;50.718;4.630;2022-07-29T15:00:13;28.90;83.10
23873;DHT22;42884;50.718;4.630;2022-07-29T15:02:39;29.20;83.20
23873;DHT22;42884;50.718;4.630;2022-07-29T15:05:05;29.40;83.90
23873;DHT22;42884;50.718;4.630;2022-07-29T15:07:30;29.50;83.60
23873;DHT22;42884;50.718;4.630;2022-07-29T15:09:56;29.60;84.80
23873;DHT22;42884;50.718;4.630;2022-07-29T15:12:21;29.30;81.80
23873;DHT22;42884;50.718;4.630;2022-07-29T15:14:47;29.60;81.40
23873;DHT22;42884;50.718;4.630;2022-07-29T15:17:12;29.70;81.00
23873;DHT22;42884;50.718;4.630;2022-07-29T15:19:38;30.20;81.00
23873;DHT22;42884;50.718;4.630;2022-07-29T15:22:03;30.40;81.00
23873;DHT22;42884;50.718;4.630;2022-07-29T15:24:32;30.60;77.60
23873;DHT22;42884;50.718;4.630;2022-07-29T15:26:58;30.50;79.90
23873;DHT22;42884;50.718;4.630;2022-07-29T15:29:23;30.70;80.60
23873;DHT22;42884;50.718;4.630;2022-07-29T15:31:49;31.10;79.20
23873;DHT22;42884;50.718;4.630;2022-07-29T15:34:14;30.80;77.50
23873;DHT22;42884;50.718;4.630;2022-07-29T15:36:40;30.60;78.30
23873;DHT22;42884;50.718;4.630;2022-07-29T15:39:05;30.50;78.70
23873;DHT22;42884;50.718;4.630;2022-07-29T15:41:32;30.50;79.80
23873;DHT22;42884;50.718;4.630;2022-07-29T15:43:57;30.30;79.30
23873;DHT22;42884;50.718;4.630;2022-07-29T15:46:23;30.50;77.10
23873;DHT22;42884;50.718;4.630;2022-07-29T15:49:07;30.80;78.20
23873;DHT22;42884;50.718;4.630;2022-07-29T15:51:33;31.00;77.10
23873;DHT22;42884;50.718;4.630;2022-07-29T15:54:00;31.40;75.70
23873;DHT22;42884;50.718;4.630;2022-07-29T15:56:26;31.80;74.10
23873;DHT22;42884;50.718;4.630;2022-07-29T15:58:52;31.80;74.70
23873;DHT22;42884;50.718;4.630;2022-07-29T16:01:17;32.20;76.70
23873;DHT22;42884;50.718;4.630;2022-07-29T16:03:43;32.40;73.20
23873;DHT22;42884;50.718;4.630;2022-07-29T16:06:08;32.40;73.10
23873;DHT22;42884;50.718;4.630;2022-07-29T16:08:34;32.70;72.70
23873;DHT22;42884;50.718;4.630;2022-07-29T16:11:00;32.40;72.70
23873;DHT22;42884;50.718;4.630;2022-07-29T16:13:25;32.20;72.50